• Join FlightAware (Why Join?)
  • Login
  • US Flag 
10:34PM EDT


 

Airport Tracker/Info


-or-


 

Live Flight TrackerFlight Track Log ✈ EJA951 ✈ 15-May-2013 ✈ KMKE - KLUK

Flight Track Log - Related Links

Times and Time Zones

All times are in EDT time to prevent confusion due to time zone crossing. See the EJA951 flight status page for this flight to view local times or setup timezone preferences in your user account.

Time Position Orientation Groundspeed Altitude Reporting Facility
EDT Latitude Longitude Course Direction KTS MPH feet Rate Location/Type
11:00AM 42.9333 -87.9333 144° Southeast 188 216 1,900  Level KMKE
11:01AM 42.8833 -87.8833 144° Southeast 281 323 7,300 3,960 Climbing KMKE
11:02AM 42.8869 -87.7761 87° East 314 361 11,000 3,060 Climbing Chicago Center
11:03AM 42.8881 -87.6289 89° East 390 449 13,500 2,220 Climbing Chicago Center
11:04AM 42.8856 -87.4672 91° East 424 488 15,700 1,980 Climbing Chicago Center
11:05AM 42.8736 -87.3106 96° East 443 510 17,700 2,100 Climbing Chicago Center
11:06AM 42.7658 -87.1742 137° Southeast 444 511 20,100 2,160 Climbing Chicago Center
11:08AM 42.6722 -87.0669 140° Southeast 444 511 22,200 1,860 Climbing Chicago Center
11:09AM 42.5733 -86.9567 141° Southeast 458 527 24,000 1,740 Climbing Chicago Center
11:10AM 42.4758 -86.8436 139° Southeast 469 540 25,900 1,440 Climbing Chicago Center
11:11AM 42.3719 -86.7281 141° Southeast 479 551 27,000 480 Climbing Chicago Center
11:12AM 42.2550 -86.5953 140° Southeast 511 588 27,000  Level Chicago Center
11:13AM 42.1428 -86.4689 140° Southeast 526 605 27,000  Level Chicago Center
11:14AM 42.0078 -86.3181 140° Southeast 527 606 27,000  Level Chicago Center
11:15AM 41.8933 -86.1892 140° Southeast 535 616 27,000  Level Chicago Center
11:16AM 41.7786 -86.0631 141° Southeast 536 617 27,000  Level Chicago Center
11:17AM 41.6631 -85.9356 140° Southeast 540 621 27,000  Level Chicago Center
11:18AM 41.5486 -85.8092 140° Southeast 539 620 27,000  Level Chicago Center
11:19AM 41.4114 -85.6589 141° Southeast 542 624 27,000  Level Chicago Center
11:20AM 41.2975 -85.5333 140° Southeast 542 624 27,000  Level Chicago Center
11:21AM 41.1825 -85.4067 140° Southeast 541 623 27,000 -420 Level Chicago Center
11:22AM 41.0669 -85.2817 141° Southeast 541 623 26,200 -1,500 Descending Chicago Center
11:23AM 40.9633 -85.1572 138° Southeast 513 590 24,000 -2,100 Descending Chicago Center
11:24AM 40.8611 -84.9894 129° Southeast 492 566 21,900 -1,500 Descending Chicago Center
11:25AM 40.7794 -84.8528 128° Southeast 482 555 21,000 -480 Descending Chicago Center
11:26AM 40.6956 -84.7131 128° Southeast 484 557 21,000  Level Chicago Center
11:27AM 40.6028 -84.5800 133° Southeast 493 567 21,000  Level Chicago Center
11:28AM 40.5431 -84.5081 138° Southeast 491 565 21,000 -960 Level Indianapolis Center
11:29AM 40.4444 -84.3864 137° Southeast 485 558 19,500 -1,980 Descending Indianapolis Center
11:30AM 40.3478 -84.2722 138° Southeast 468 539 17,000 -2,400 Descending Indianapolis Center
11:31AM 40.2386 -84.1936 151° Southeast 447 514 14,600 -2,220 Descending Indianapolis Center
11:31AM 40.1961 -84.1639 152° Southeast 439 505 14,100 -1,620 Descending Indianapolis Center
11:32AM 40.0756 -84.1506 175° South 408 470 12,500 -1,500 Descending Indianapolis Center
11:33AM 39.9664 -84.1825 193° South 396 456 11,100 -1,320 Descending Indianapolis Center
11:34AM 39.8722 -84.2056 191° South 392 451 10,000 -660 Descending Indianapolis Center
11:35AM 39.7881 -84.2297 192° South 383 441 10,000 -480 Level Indianapolis Center
11:36AM 39.7133 -84.2511 192° South 291 335 9,100 -1,380 Descending Indianapolis Center
11:37AM 39.6403 -84.2719 192° South 270 311 7,200 -1,920 Descending Indianapolis Center
11:38AM 39.5692 -84.2917 192° South 264 304 5,200 -1,080 Descending Indianapolis Center
11:39AM 39.4847 -84.3139 191° South 263 303 5,000 -120 Descending Indianapolis Center
11:40AM 39.4136 -84.3239 186° South 263 303 5,000  Level Indianapolis Center
11:41AM 39.3653 -84.2608 135° Southeast 256 295 5,000  Level Indianapolis Center
11:42AM 39.3100 -84.2133 146° Southeast 243 280 5,000 -60 Level Indianapolis Center
11:43AM 39.2542 -84.1628 145° Southeast 242 278 4,900 -780 Descending Indianapolis Center
11:44AM 39.2031 -84.1461 166° South 226 260 3,500 -960 Descending Indianapolis Center
11:45AM 39.1836 -84.2003 245° Southwest 184 212 3,000 -300 Descending Indianapolis Center
11:46AM 39.1697 -84.2592 253° West 173 199 3,000 -540 Level Indianapolis Center
11:48AM 39.1333 -84.3500 243° Southwest 167 192 1,600 -900 Descending Cincinnati TRACON
11:50AM 39.1000 -84.4167 195° South  Level FlightAware Approximate
11:57AM 39.1033 -84.4186 195° South  Level Estimated